PWSweather.com
Personal Weather Stations
Station Observations
WISCHPK61
Green Bay Schmitt Park, Green Bay, WI 54311

Green Bay Schmitt ParkGreen Bay, WI 54311

Lat: 44.514277, Lon: -87.935067

Elevation: 735

Station Type: Acu Rite Pro Weather Center model 02032C

http://greenbayweathercam.com

High Low Average
Temperature 33.8°F1.0°C 31.3°F-0.4°C 32.4°F0.2°C
Dew Point 33.5°F0.8°C 28.4°F-2.0°C 31.3°F-0.4°C
Winds Calm Calm Calm Calm Calm SWCalm SW
Wind Gusts -- -- --
Humidity 99% 84% 96%
Pressure 29.11 in985.8 mb 29.04 in983.4 mb -
Precipitation 0.33 in8.4 mm - -
Hour Temp Dew Point Humidity Winds Wind Gusts Pressure Precip Precip Rate Daily Precip Total
12:00 AM 31.8°F-0.1°C 30.3°F-0.9°C 94% Calm Calm -- 29.07 in984.4 mb - 0.00 in0.0 mm 0.00 in0.0 mm
01:00 AM 31.6°F-0.2°C 31.1°F-0.5°C 98% Calm Calm -- 29.06 in984.1 mb - 0.01 in0.3 mm 0.01 in0.3 mm
02:00 AM 31.6°F-0.2°C 31.4°F-0.3°C 99% Calm Calm -- 29.06 in984.1 mb - 0.00 in0.0 mm 0.01 in0.3 mm
03:00 AM 31.6°F-0.2°C 29.3°F-1.5°C 91% Calm Calm -- 29.05 in983.7 mb - 0.00 in0.0 mm 0.01 in0.3 mm
04:00 AM 31.6°F-0.2°C 31.1°F-0.5°C 98% Calm Calm -- 29.04 in983.4 mb - 0.00 in0.0 mm 0.01 in0.3 mm
05:00 AM 31.5°F-0.3°C 30.0°F-1.1°C 94% Calm Calm -- 29.04 in983.4 mb - 0.00 in0.0 mm 0.01 in0.3 mm
06:00 AM 31.5°F-0.3°C 31.3°F-0.4°C 99% Calm Calm -- 29.05 in983.7 mb - 0.00 in0.0 mm 0.01 in0.3 mm
07:00 AM 31.3°F-0.4°C 29.8°F-1.2°C 94% Calm Calm -- 29.05 in983.7 mb - 0.00 in0.0 mm 0.01 in0.3 mm
08:00 AM 31.3°F-0.4°C 31.1°F-0.5°C 99% Calm Calm -- 29.06 in984.1 mb - 0.00 in0.0 mm 0.01 in0.3 mm
09:00 AM 32.2°F0.1°C 32.0°F0.0°C 99% Calm Calm -- 29.06 in984.1 mb - 0.00 in0.0 mm 0.01 in0.3 mm
10:00 AM 32.7°F0.4°C 32.5°F0.3°C 99% Calm Calm -- 29.07 in984.4 mb - 0.00 in0.0 mm 0.01 in0.3 mm
11:00 AM 33.6°F0.9°C 33.3°F0.7°C 99% Calm Calm -- 29.07 in984.4 mb - 0.00 in0.0 mm 0.01 in0.3 mm
12:00 PM 33.8°F1.0°C 33.5°F0.8°C 99% Calm Calm -- 29.07 in984.4 mb - 0.01 in0.3 mm 0.02 in0.5 mm
01:00 PM 33.4°F0.8°C 30.8°F-0.7°C 90% Calm Calm -- 29.05 in983.7 mb - 0.00 in0.0 mm 0.02 in0.5 mm
02:00 PM 33.4°F0.8°C 33.1°F0.6°C 99% Calm Calm -- 29.06 in984.1 mb - 0.00 in0.0 mm 0.02 in0.5 mm
03:00 PM 33.8°F1.0°C 29.8°F-1.2°C 85% Calm Calm -- 29.07 in984.4 mb - 0.00 in0.0 mm 0.02 in0.5 mm
04:00 PM 32.7°F0.4°C 32.5°F0.3°C 99% Calm Calm -- 29.08 in984.8 mb - 0.00 in0.0 mm 0.02 in0.5 mm
05:00 PM 32.4°F0.2°C 32.2°F0.1°C 99% Calm Calm -- 29.09 in985.1 mb - 0.03 in0.8 mm 0.05 in1.3 mm
06:00 PM 32.4°F0.2°C 32.2°F0.1°C 99% Calm Calm -- 29.09 in985.1 mb - 0.03 in0.8 mm 0.08 in2.0 mm
07:00 PM 32.5°F0.3°C 32.3°F0.2°C 99% Calm Calm -- 29.10 in985.4 mb - 0.04 in1.0 mm 0.11 in2.8 mm
08:00 PM 32.5°F0.3°C 32.3°F0.2°C 99% Calm Calm -- 29.10 in985.4 mb - 0.06 in1.5 mm 0.17 in4.3 mm
09:00 PM 32.5°F0.3°C 30.4°F-0.9°C 92% Calm Calm -- 29.10 in985.4 mb - 0.06 in1.5 mm 0.22 in5.6 mm
10:00 PM 32.7°F0.4°C 28.4°F-2.0°C 84% Calm Calm -- 29.10 in985.4 mb - 0.05 in1.3 mm 0.27 in6.9 mm
11:00 PM 32.2°F0.1°C 30.9°F-0.6°C 95% Calm Calm -- 29.11 in985.8 mb - 0.06 in1.5 mm 0.33 in8.4 mm